sensor_id;sensor_type;location;lat;lon;timestamp;P1;durP1;ratioP1;P2;durP2;ratioP2
56267;SDS011;42175;46.930;9.532;2022-12-18T00:00:44;5.88;;;3.20;;
56267;SDS011;42175;46.930;9.532;2022-12-18T00:03:12;4.93;;;2.78;;
56267;SDS011;42175;46.930;9.532;2022-12-18T00:05:46;5.82;;;2.50;;
56267;SDS011;42175;46.930;9.532;2022-12-18T00:10:38;14.05;;;2.65;;
56267;SDS011;42175;46.930;9.532;2022-12-18T00:13:04;7.63;;;3.22;;
56267;SDS011;42175;46.930;9.532;2022-12-18T00:15:29;5.43;;;2.55;;
56267;SDS011;42175;46.930;9.532;2022-12-18T00:17:55;7.15;;;2.95;;
56267;SDS011;42175;46.930;9.532;2022-12-18T00:20:21;5.63;;;2.38;;
56267;SDS011;42175;46.930;9.532;2022-12-18T00:22:51;4.63;;;2.28;;
56267;SDS011;42175;46.930;9.532;2022-12-18T00:25:17;9.68;;;2.95;;
56267;SDS011;42175;46.930;9.532;2022-12-18T00:27:42;5.82;;;2.63;;
56267;SDS011;42175;46.930;9.532;2022-12-18T00:30:08;5.93;;;2.75;;
56267;SDS011;42175;46.930;9.532;2022-12-18T00:32:35;4.32;;;2.60;;
56267;SDS011;42175;46.930;9.532;2022-12-18T00:35:00;6.90;;;2.28;;
56267;SDS011;42175;46.930;9.532;2022-12-18T00:37:26;4.65;;;2.70;;
56267;SDS011;42175;46.930;9.532;2022-12-18T00:39:52;4.55;;;2.45;;
56267;SDS011;42175;46.930;9.532;2022-12-18T00:42:17;5.82;;;2.53;;
56267;SDS011;42175;46.930;9.532;2022-12-18T00:45:02;3.42;;;2.10;;
56267;SDS011;42175;46.930;9.532;2022-12-18T00:47:27;5.72;;;2.17;;
56267;SDS011;42175;46.930;9.532;2022-12-18T00:49:53;4.88;;;2.45;;
56267;SDS011;42175;46.930;9.532;2022-12-18T00:52:19;3.35;;;2.00;;
56267;SDS011;42175;46.930;9.532;2022-12-18T00:54:44;5.28;;;2.40;;
56267;SDS011;42175;46.930;9.532;2022-12-18T00:57:10;3.67;;;2.22;;
56267;SDS011;42175;46.930;9.532;2022-12-18T00:59:36;3.97;;;2.20;;
56267;SDS011;42175;46.930;9.532;2022-12-18T01:02:01;5.05;;;2.13;;
56267;SDS011;42175;46.930;9.532;2022-12-18T01:04:27;3.92;;;2.17;;
56267;SDS011;42175;46.930;9.532;2022-12-18T01:06:53;5.53;;;2.28;;
56267;SDS011;42175;46.930;9.532;2022-12-18T01:09:19;3.72;;;2.20;;
56267;SDS011;42175;46.930;9.532;2022-12-18T01:11:44;5.43;;;2.55;;
56267;SDS011;42175;46.930;9.532;2022-12-18T01:14:10;5.15;;;1.83;;
56267;SDS011;42175;46.930;9.532;2022-12-18T01:16:36;4.38;;;2.13;;
56267;SDS011;42175;46.930;9.532;2022-12-18T01:19:02;4.00;;;2.28;;
56267;SDS011;42175;46.930;9.532;2022-12-18T01:21:27;3.83;;;1.90;;
56267;SDS011;42175;46.930;9.532;2022-12-18T01:23:54;3.28;;;2.10;;
56267;SDS011;42175;46.930;9.532;2022-12-18T01:26:21;4.18;;;2.13;;
56267;SDS011;42175;46.930;9.532;2022-12-18T01:28:47;3.13;;;1.90;;
56267;SDS011;42175;46.930;9.532;2022-12-18T01:31:17;6.65;;;2.00;;
56267;SDS011;42175;46.930;9.532;2022-12-18T01:33:44;9.60;;;1.67;;
56267;SDS011;42175;46.930;9.532;2022-12-18T01:36:14;6.05;;;2.22;;
56267;SDS011;42175;46.930;9.532;2022-12-18T01:38:49;4.10;;;2.00;;
56267;SDS011;42175;46.930;9.532;2022-12-18T01:41:16;8.57;;;2.10;;
56267;SDS011;42175;46.930;9.532;2022-12-18T01:43:53;4.28;;;2.00;;
56267;SDS011;42175;46.930;9.532;2022-12-18T01:46:22;4.32;;;1.80;;
56267;SDS011;42175;46.930;9.532;2022-12-18T01:48:53;5.55;;;2.17;;
56267;SDS011;42175;46.930;9.532;2022-12-18T01:51:25;5.50;;;1.77;;
56267;SDS011;42175;46.930;9.532;2022-12-18T01:53:52;6.15;;;1.95;;
56267;SDS011;42175;46.930;9.532;2022-12-18T01:56:18;3.45;;;1.77;;
56267;SDS011;42175;46.930;9.532;2022-12-18T01:58:51;3.88;;;1.95;;
56267;SDS011;42175;46.930;9.532;2022-12-18T02:01:24;5.72;;;1.90;;
56267;SDS011;42175;46.930;9.532;2022-12-18T02:03:51;3.85;;;2.08;;
56267;SDS011;42175;46.930;9.532;2022-12-18T02:06:21;4.75;;;1.73;;
56267;SDS011;42175;46.930;9.532;2022-12-18T02:11:39;3.10;;;2.08;;
56267;SDS011;42175;46.930;9.532;2022-12-18T02:19:30;6.72;;;1.80;;
56267;SDS011;42175;46.930;9.532;2022-12-18T02:22:27;5.65;;;1.88;;
56267;SDS011;42175;46.930;9.532;2022-12-18T02:27:40;2.83;;;1.73;;
56267;SDS011;42175;46.930;9.532;2022-12-18T02:30:10;3.25;;;2.08;;
56267;SDS011;42175;46.930;9.532;2022-12-18T02:32:40;2.88;;;1.60;;
56267;SDS011;42175;46.930;9.532;2022-12-18T02:35:13;2.47;;;1.63;;
56267;SDS011;42175;46.930;9.532;2022-12-18T02:37:43;2.88;;;1.63;;
56267;SDS011;42175;46.930;9.532;2022-12-18T02:40:11;3.10;;;1.58;;
56267;SDS011;42175;46.930;9.532;2022-12-18T02:42:39;4.65;;;1.58;;
56267;SDS011;42175;46.930;9.532;2022-12-18T02:45:05;3.72;;;2.22;;
56267;SDS011;42175;46.930;9.532;2022-12-18T02:47:32;5.15;;;1.60;;
56267;SDS011;42175;46.930;9.532;2022-12-18T02:52:31;2.97;;;1.52;;
56267;SDS011;42175;46.930;9.532;2022-12-18T02:57:54;3.20;;;1.63;;
56267;SDS011;42175;46.930;9.532;2022-12-18T03:03:12;3.30;;;1.67;;
56267;SDS011;42175;46.930;9.532;2022-12-18T03:05:56;1.80;;;1.30;;
56267;SDS011;42175;46.930;9.532;2022-12-18T03:08:39;2.85;;;1.55;;
56267;SDS011;42175;46.930;9.532;2022-12-18T03:11:13;2.70;;;1.60;;
56267;SDS011;42175;46.930;9.532;2022-12-18T03:16:10;2.72;;;1.67;;
56267;SDS011;42175;46.930;9.532;2022-12-18T03:21:23;1.95;;;1.33;;
56267;SDS011;42175;46.930;9.532;2022-12-18T03:23:58;6.18;;;1.60;;
56267;SDS011;42175;46.930;9.532;2022-12-18T03:26:26;2.40;;;1.45;;
56267;SDS011;42175;46.930;9.532;2022-12-18T03:28:54;3.95;;;1.80;;
56267;SDS011;42175;46.930;9.532;2022-12-18T03:31:24;4.00;;;1.65;;
56267;SDS011;42175;46.930;9.532;2022-12-18T03:33:54;3.30;;;1.50;;
56267;SDS011;42175;46.930;9.532;2022-12-18T03:36:22;3.30;;;1.73;;
56267;SDS011;42175;46.930;9.532;2022-12-18T03:38:49;2.17;;;1.30;;
56267;SDS011;42175;46.930;9.532;2022-12-18T03:41:17;4.25;;;1.73;;
56267;SDS011;42175;46.930;9.532;2022-12-18T03:44:05;3.03;;;1.63;;
56267;SDS011;42175;46.930;9.532;2022-12-18T03:49:09;2.50;;;1.30;;
56267;SDS011;42175;46.930;9.532;2022-12-18T03:54:22;2.95;;;1.48;;
56267;SDS011;42175;46.930;9.532;2022-12-18T03:56:52;3.22;;;1.45;;
56267;SDS011;42175;46.930;9.532;2022-12-18T03:59:24;1.80;;;1.10;;
56267;SDS011;42175;46.930;9.532;2022-12-18T04:01:53;2.65;;;1.50;;
56267;SDS011;42175;46.930;9.532;2022-12-18T04:04:23;2.33;;;1.35;;
56267;SDS011;42175;46.930;9.532;2022-12-18T04:06:50;2.25;;;1.50;;
56267;SDS011;42175;46.930;9.532;2022-12-18T04:09:17;1.77;;;1.27;;
56267;SDS011;42175;46.930;9.532;2022-12-18T04:11:45;2.03;;;1.27;;
56267;SDS011;42175;46.930;9.532;2022-12-18T04:14:12;2.13;;;1.20;;
56267;SDS011;42175;46.930;9.532;2022-12-18T04:16:39;1.75;;;1.20;;
56267;SDS011;42175;46.930;9.532;2022-12-18T04:19:05;2.65;;;1.40;;
56267;SDS011;42175;46.930;9.532;2022-12-18T04:21:30;4.07;;;1.20;;
56267;SDS011;42175;46.930;9.532;2022-12-18T04:23:56;1.83;;;1.05;;
56267;SDS011;42175;46.930;9.532;2022-12-18T04:26:22;2.38;;;1.40;;
56267;SDS011;42175;46.930;9.532;2022-12-18T04:28:48;2.00;;;1.27;;
56267;SDS011;42175;46.930;9.532;2022-12-18T04:31:13;3.83;;;1.30;;
56267;SDS011;42175;46.930;9.532;2022-12-18T04:33:39;2.63;;;1.60;;
56267;SDS011;42175;46.930;9.532;2022-12-18T04:36:05;5.75;;;1.63;;
56267;SDS011;42175;46.930;9.532;2022-12-18T04:38:31;1.90;;;1.30;;
56267;SDS011;42175;46.930;9.532;2022-12-18T04:40:56;1.92;;;1.40;;
56267;SDS011;42175;46.930;9.532;2022-12-18T04:43:22;2.03;;;1.10;;
56267;SDS011;42175;46.930;9.532;2022-12-18T04:45:48;2.00;;;1.35;;
56267;SDS011;42175;46.930;9.532;2022-12-18T04:48:13;1.80;;;1.20;;
56267;SDS011;42175;46.930;9.532;2022-12-18T04:50:39;2.03;;;1.08;;
56267;SDS011;42175;46.930;9.532;2022-12-18T04:53:05;1.85;;;1.20;;
56267;SDS011;42175;46.930;9.532;2022-12-18T04:55:31;1.85;;;1.30;;
56267;SDS011;42175;46.930;9.532;2022-12-18T04:57:56;2.55;;;1.65;;
56267;SDS011;42175;46.930;9.532;2022-12-18T05:00:22;1.42;;;1.00;;
56267;SDS011;42175;46.930;9.532;2022-12-18T05:02:48;2.45;;;1.20;;
56267;SDS011;42175;46.930;9.532;2022-12-18T05:05:13;1.48;;;1.20;;
56267;SDS011;42175;46.930;9.532;2022-12-18T05:07:39;1.70;;;1.10;;
56267;SDS011;42175;46.930;9.532;2022-12-18T05:10:07;2.95;;;1.13;;
56267;SDS011;42175;46.930;9.532;2022-12-18T05:12:33;2.20;;;1.45;;
56267;SDS011;42175;46.930;9.532;2022-12-18T05:15:19;2.38;;;1.20;;
56267;SDS011;42175;46.930;9.532;2022-12-18T05:17:44;2.22;;;1.20;;
56267;SDS011;42175;46.930;9.532;2022-12-18T05:20:10;2.20;;;1.30;;
56267;SDS011;42175;46.930;9.532;2022-12-18T05:22:36;1.77;;;1.10;;
56267;SDS011;42175;46.930;9.532;2022-12-18T05:25:02;1.50;;;1.10;;
56267;SDS011;42175;46.930;9.532;2022-12-18T05:27:28;1.90;;;1.13;;
56267;SDS011;42175;46.930;9.532;2022-12-18T05:29:53;1.30;;;1.00;;
56267;SDS011;42175;46.930;9.532;2022-12-18T05:32:19;1.65;;;1.10;;
56267;SDS011;42175;46.930;9.532;2022-12-18T05:34:45;2.75;;;1.42;;
56267;SDS011;42175;46.930;9.532;2022-12-18T05:37:10;3.72;;;1.52;;
56267;SDS011;42175;46.930;9.532;2022-12-18T05:39:36;1.63;;;1.10;;
56267;SDS011;42175;46.930;9.532;2022-12-18T05:42:02;1.63;;;1.20;;
56267;SDS011;42175;46.930;9.532;2022-12-18T05:44:27;2.58;;;1.08;;
56267;SDS011;42175;46.930;9.532;2022-12-18T05:46:53;1.92;;;1.10;;
56267;SDS011;42175;46.930;9.532;2022-12-18T05:49:19;2.67;;;1.40;;
56267;SDS011;42175;46.930;9.532;2022-12-18T05:51:45;1.55;;;1.00;;
56267;SDS011;42175;46.930;9.532;2022-12-18T05:54:11;2.47;;;1.35;;
56267;SDS011;42175;46.930;9.532;2022-12-18T05:56:36;2.17;;;1.20;;
56267;SDS011;42175;46.930;9.532;2022-12-18T05:59:02;2.03;;;1.00;;
56267;SDS011;42175;46.930;9.532;2022-12-18T06:01:28;3.45;;;1.02;;
56267;SDS011;42175;46.930;9.532;2022-12-18T06:03:54;1.73;;;1.27;;
56267;SDS011;42175;46.930;9.532;2022-12-18T06:06:22;0.98;;;0.80;;
56267;SDS011;42175;46.930;9.532;2022-12-18T06:08:49;1.85;;;1.10;;
56267;SDS011;42175;46.930;9.532;2022-12-18T06:11:17;1.85;;;1.15;;
56267;SDS011;42175;46.930;9.532;2022-12-18T06:13:45;1.70;;;1.10;;
56267;SDS011;42175;46.930;9.532;2022-12-18T06:16:14;1.83;;;1.00;;
56267;SDS011;42175;46.930;9.532;2022-12-18T06:18:40;1.60;;;1.13;;
56267;SDS011;42175;46.930;9.532;2022-12-18T06:21:05;2.13;;;0.98;;
56267;SDS011;42175;46.930;9.532;2022-12-18T06:23:31;2.55;;;1.00;;
56267;SDS011;42175;46.930;9.532;2022-12-18T06:25:57;1.50;;;1.20;;
56267;SDS011;42175;46.930;9.532;2022-12-18T06:28:22;1.20;;;0.90;;
56267;SDS011;42175;46.930;9.532;2022-12-18T06:30:48;1.48;;;0.90;;
56267;SDS011;42175;46.930;9.532;2022-12-18T06:33:16;1.52;;;1.00;;
56267;SDS011;42175;46.930;9.532;2022-12-18T06:35:42;4.07;;;1.52;;
56267;SDS011;42175;46.930;9.532;2022-12-18T06:38:07;1.90;;;1.10;;
56267;SDS011;42175;46.930;9.532;2022-12-18T06:40:33;1.00;;;0.90;;
56267;SDS011;42175;46.930;9.532;2022-12-18T06:42:59;1.52;;;1.10;;
56267;SDS011;42175;46.930;9.532;2022-12-18T06:45:25;1.75;;;1.05;;
56267;SDS011;42175;46.930;9.532;2022-12-18T06:47:50;2.35;;;1.08;;
56267;SDS011;42175;46.930;9.532;2022-12-18T06:50:16;1.42;;;1.00;;
56267;SDS011;42175;46.930;9.532;2022-12-18T06:52:42;1.10;;;0.80;;
56267;SDS011;42175;46.930;9.532;2022-12-18T06:55:09;1.58;;;1.00;;
56267;SDS011;42175;46.930;9.532;2022-12-18T06:57:36;1.45;;;1.00;;
56267;SDS011;42175;46.930;9.532;2022-12-18T07:00:03;3.95;;;1.25;;
56267;SDS011;42175;46.930;9.532;2022-12-18T07:02:30;5.90;;;1.23;;
56267;SDS011;42175;46.930;9.532;2022-12-18T07:04:56;2.53;;;1.10;;
56267;SDS011;42175;46.930;9.532;2022-12-18T07:07:22;1.98;;;1.00;;
56267;SDS011;42175;46.930;9.532;2022-12-18T07:09:49;4.60;;;0.90;;
56267;SDS011;42175;46.930;9.532;2022-12-18T07:12:15;3.35;;;1.10;;
56267;SDS011;42175;46.930;9.532;2022-12-18T07:14:41;1.65;;;1.15;;
56267;SDS011;42175;46.930;9.532;2022-12-18T07:17:07;3.60;;;1.42;;
56267;SDS011;42175;46.930;9.532;2022-12-18T07:19:32;6.90;;;2.53;;
56267;SDS011;42175;46.930;9.532;2022-12-18T07:21:58;6.75;;;2.22;;
56267;SDS011;42175;46.930;9.532;2022-12-18T07:24:24;9.73;;;1.92;;
56267;SDS011;42175;46.930;9.532;2022-12-18T07:26:50;10.27;;;1.98;;
56267;SDS011;42175;46.930;9.532;2022-12-18T07:29:16;6.07;;;1.40;;
56267;SDS011;42175;46.930;9.532;2022-12-18T07:31:41;8.85;;;1.90;;
56267;SDS011;42175;46.930;9.532;2022-12-18T07:34:13;6.22;;;1.80;;
56267;SDS011;42175;46.930;9.532;2022-12-18T07:36:40;8.50;;;2.40;;
56267;SDS011;42175;46.930;9.532;2022-12-18T07:39:06;5.20;;;1.98;;
56267;SDS011;42175;46.930;9.532;2022-12-18T07:41:32;4.60;;;1.90;;
56267;SDS011;42175;46.930;9.532;2022-12-18T07:43:57;4.35;;;1.70;;
56267;SDS011;42175;46.930;9.532;2022-12-18T07:46:23;3.30;;;1.52;;
56267;SDS011;42175;46.930;9.532;2022-12-18T07:48:49;3.63;;;2.00;;
56267;SDS011;42175;46.930;9.532;2022-12-18T07:51:14;4.78;;;2.33;;
56267;SDS011;42175;46.930;9.532;2022-12-18T07:53:41;2.60;;;1.23;;
56267;SDS011;42175;46.930;9.532;2022-12-18T07:56:08;3.90;;;1.60;;
56267;SDS011;42175;46.930;9.532;2022-12-18T07:58:35;4.03;;;1.40;;
56267;SDS011;42175;46.930;9.532;2022-12-18T08:01:05;8.65;;;1.67;;
56267;SDS011;42175;46.930;9.532;2022-12-18T08:03:32;8.40;;;1.30;;
56267;SDS011;42175;46.930;9.532;2022-12-18T08:06:02;3.10;;;1.20;;
56267;SDS011;42175;46.930;9.532;2022-12-18T08:08:30;5.82;;;1.50;;
56267;SDS011;42175;46.930;9.532;2022-12-18T08:10:57;9.73;;;1.60;;
56267;SDS011;42175;46.930;9.532;2022-12-18T08:13:23;6.50;;;2.40;;
56267;SDS011;42175;46.930;9.532;2022-12-18T08:15:56;6.72;;;1.63;;
56267;SDS011;42175;46.930;9.532;2022-12-18T08:18:26;7.25;;;1.40;;
56267;SDS011;42175;46.930;9.532;2022-12-18T08:20:52;4.43;;;1.75;;
56267;SDS011;42175;46.930;9.532;2022-12-18T08:23:18;5.20;;;1.23;;
56267;SDS011;42175;46.930;9.532;2022-12-18T08:25:44;11.82;;;1.77;;
56267;SDS011;42175;46.930;9.532;2022-12-18T08:28:10;6.57;;;1.38;;
56267;SDS011;42175;46.930;9.532;2022-12-18T08:30:35;6.40;;;1.73;;
56267;SDS011;42175;46.930;9.532;2022-12-18T08:33:01;7.43;;;1.58;;
56267;SDS011;42175;46.930;9.532;2022-12-18T08:35:28;3.58;;;1.50;;
56267;SDS011;42175;46.930;9.532;2022-12-18T08:37:53;5.13;;;1.50;;
56267;SDS011;42175;46.930;9.532;2022-12-18T08:40:19;5.30;;;2.47;;
56267;SDS011;42175;46.930;9.532;2022-12-18T08:42:45;5.07;;;1.40;;
56267;SDS011;42175;46.930;9.532;2022-12-18T08:47:55;12.57;;;1.73;;
56267;SDS011;42175;46.930;9.532;2022-12-18T08:50:20;17.65;;;2.33;;
56267;SDS011;42175;46.930;9.532;2022-12-18T08:52:46;5.45;;;1.75;;
56267;SDS011;42175;46.930;9.532;2022-12-18T08:55:12;3.15;;;1.70;;
56267;SDS011;42175;46.930;9.532;2022-12-18T08:57:38;3.33;;;1.92;;
56267;SDS011;42175;46.930;9.532;2022-12-18T09:00:04;7.85;;;2.00;;
56267;SDS011;42175;46.930;9.532;2022-12-18T09:02:30;6.65;;;2.22;;
56267;SDS011;42175;46.930;9.532;2022-12-18T09:04:56;3.13;;;1.50;;
56267;SDS011;42175;46.930;9.532;2022-12-18T09:07:21;5.05;;;1.70;;
56267;SDS011;42175;46.930;9.532;2022-12-18T09:09:47;5.15;;;2.28;;
56267;SDS011;42175;46.930;9.532;2022-12-18T09:12:13;4.03;;;2.05;;
56267;SDS011;42175;46.930;9.532;2022-12-18T09:14:38;9.88;;;1.85;;
56267;SDS011;42175;46.930;9.532;2022-12-18T09:17:04;8.68;;;1.70;;
56267;SDS011;42175;46.930;9.532;2022-12-18T09:19:30;6.55;;;2.00;;
56267;SDS011;42175;46.930;9.532;2022-12-18T09:21:55;5.20;;;1.70;;
56267;SDS011;42175;46.930;9.532;2022-12-18T09:24:21;4.22;;;1.70;;
56267;SDS011;42175;46.930;9.532;2022-12-18T09:26:47;6.50;;;2.05;;
56267;SDS011;42175;46.930;9.532;2022-12-18T09:29:13;7.45;;;1.80;;
56267;SDS011;42175;46.930;9.532;2022-12-18T09:31:40;4.13;;;2.03;;
56267;SDS011;42175;46.930;9.532;2022-12-18T09:34:05;4.85;;;2.28;;
56267;SDS011;42175;46.930;9.532;2022-12-18T09:36:31;3.60;;;1.80;;
56267;SDS011;42175;46.930;9.532;2022-12-18T09:38:57;5.03;;;2.22;;
56267;SDS011;42175;46.930;9.532;2022-12-18T09:43:59;7.47;;;2.03;;
56267;SDS011;42175;46.930;9.532;2022-12-18T09:46:51;2.80;;;1.98;;
56267;SDS011;42175;46.930;9.532;2022-12-18T09:49:18;5.43;;;2.60;;
56267;SDS011;42175;46.930;9.532;2022-12-18T09:51:52;8.05;;;2.42;;
56267;SDS011;42175;46.930;9.532;2022-12-18T09:54:42;4.40;;;1.92;;
56267;SDS011;42175;46.930;9.532;2022-12-18T09:57:18;4.28;;;1.88;;
56267;SDS011;42175;46.930;9.532;2022-12-18T09:59:57;5.55;;;2.20;;
56267;SDS011;42175;46.930;9.532;2022-12-18T10:02:30;5.65;;;2.35;;
56267;SDS011;42175;46.930;9.532;2022-12-18T10:15:17;4.63;;;2.25;;
56267;SDS011;42175;46.930;9.532;2022-12-18T10:18:02;8.18;;;2.30;;
56267;SDS011;42175;46.930;9.532;2022-12-18T10:20:42;5.15;;;2.20;;
56267;SDS011;42175;46.930;9.532;2022-12-18T10:26:00;5.30;;;2.45;;
56267;SDS011;42175;46.930;9.532;2022-12-18T10:28:27;3.97;;;2.08;;
56267;SDS011;42175;46.930;9.532;2022-12-18T10:30:56;4.30;;;1.85;;
56267;SDS011;42175;46.930;9.532;2022-12-18T10:33:23;7.57;;;2.08;;
56267;SDS011;42175;46.930;9.532;2022-12-18T10:35:52;3.70;;;2.20;;
56267;SDS011;42175;46.930;9.532;2022-12-18T10:38:23;4.78;;;2.15;;
56267;SDS011;42175;46.930;9.532;2022-12-18T10:48:39;4.43;;;2.72;;
56267;SDS011;42175;46.930;9.532;2022-12-18T10:51:19;18.70;;;3.92;;
56267;SDS011;42175;46.930;9.532;2022-12-18T10:54:06;6.95;;;2.92;;
56267;SDS011;42175;46.930;9.532;2022-12-18T10:56:41;4.00;;;2.45;;
56267;SDS011;42175;46.930;9.532;2022-12-18T10:59:09;5.97;;;2.80;;
56267;SDS011;42175;46.930;9.532;2022-12-18T11:04:22;6.47;;;2.60;;
56267;SDS011;42175;46.930;9.532;2022-12-18T11:09:23;8.95;;;2.90;;
56267;SDS011;42175;46.930;9.532;2022-12-18T11:12:01;5.97;;;2.75;;
56267;SDS011;42175;46.930;9.532;2022-12-18T11:14:30;5.45;;;2.60;;
56267;SDS011;42175;46.930;9.532;2022-12-18T11:16:59;7.60;;;2.35;;
56267;SDS011;42175;46.930;9.532;2022-12-18T11:21:57;2.30;;;1.50;;
56267;SDS011;42175;46.930;9.532;2022-12-18T11:24:27;3.03;;;1.60;;
56267;SDS011;42175;46.930;9.532;2022-12-18T11:27:05;2.47;;;1.65;;
56267;SDS011;42175;46.930;9.532;2022-12-18T11:29:41;3.03;;;1.50;;
56267;SDS011;42175;46.930;9.532;2022-12-18T11:32:19;2.70;;;1.40;;
56267;SDS011;42175;46.930;9.532;2022-12-18T11:34:54;2.58;;;1.70;;
56267;SDS011;42175;46.930;9.532;2022-12-18T11:37:48;4.35;;;1.90;;
56267;SDS011;42175;46.930;9.532;2022-12-18T11:40:25;4.63;;;1.58;;
56267;SDS011;42175;46.930;9.532;2022-12-18T11:43:27;4.43;;;2.13;;
56267;SDS011;42175;46.930;9.532;2022-12-18T11:46:03;2.92;;;1.70;;
56267;SDS011;42175;46.930;9.532;2022-12-18T11:51:02;5.25;;;1.52;;
56267;SDS011;42175;46.930;9.532;2022-12-18T11:53:35;5.40;;;1.65;;
56267;SDS011;42175;46.930;9.532;2022-12-18T11:59:03;5.75;;;1.70;;
56267;SDS011;42175;46.930;9.532;2022-12-18T12:01:53;2.25;;;1.50;;
56267;SDS011;42175;46.930;9.532;2022-12-18T12:21:15;12.98;;;2.13;;
56267;SDS011;42175;46.930;9.532;2022-12-18T12:32:28;6.28;;;1.80;;
56267;SDS011;42175;46.930;9.532;2022-12-18T12:35:25;3.60;;;1.40;;
56267;SDS011;42175;46.930;9.532;2022-12-18T12:40:57;8.07;;;1.50;;
56267;SDS011;42175;46.930;9.532;2022-12-18T12:43:38;4.07;;;1.55;;
56267;SDS011;42175;46.930;9.532;2022-12-18T12:46:11;4.72;;;1.65;;
56267;SDS011;42175;46.930;9.532;2022-12-18T12:53:41;7.85;;;1.73;;
56267;SDS011;42175;46.930;9.532;2022-12-18T12:56:08;6.78;;;1.75;;
56267;SDS011;42175;46.930;9.532;2022-12-18T12:58:43;6.00;;;1.67;;
56267;SDS011;42175;46.930;9.532;2022-12-18T13:01:43;9.35;;;1.60;;
56267;SDS011;42175;46.930;9.532;2022-12-18T13:04:26;9.80;;;1.63;;
56267;SDS011;42175;46.930;9.532;2022-12-18T13:13:00;5.05;;;1.70;;
56267;SDS011;42175;46.930;9.532;2022-12-18T13:20:36;4.13;;;1.42;;
56267;SDS011;42175;46.930;9.532;2022-12-18T13:25:53;6.38;;;1.85;;
56267;SDS011;42175;46.930;9.532;2022-12-18T13:28:21;8.80;;;2.00;;
56267;SDS011;42175;46.930;9.532;2022-12-18T13:31:06;7.38;;;1.90;;
56267;SDS011;42175;46.930;9.532;2022-12-18T13:33:39;4.05;;;2.00;;
56267;SDS011;42175;46.930;9.532;2022-12-18T13:38:47;4.28;;;1.67;;
56267;SDS011;42175;46.930;9.532;2022-12-18T13:41:33;3.40;;;1.60;;
56267;SDS011;42175;46.930;9.532;2022-12-18T13:44:11;3.53;;;2.58;;
56267;SDS011;42175;46.930;9.532;2022-12-18T13:46:46;4.85;;;2.60;;
56267;SDS011;42175;46.930;9.532;2022-12-18T13:51:47;4.63;;;1.98;;
56267;SDS011;42175;46.930;9.532;2022-12-18T13:56:49;7.45;;;1.77;;
56267;SDS011;42175;46.930;9.532;2022-12-18T13:59:17;5.90;;;1.67;;
56267;SDS011;42175;46.930;9.532;2022-12-18T14:04:23;2.83;;;1.80;;
56267;SDS011;42175;46.930;9.532;2022-12-18T14:06:52;5.15;;;1.98;;
56267;SDS011;42175;46.930;9.532;2022-12-18T14:09:26;9.43;;;1.92;;
56267;SDS011;42175;46.930;9.532;2022-12-18T14:11:55;5.60;;;2.00;;
56267;SDS011;42175;46.930;9.532;2022-12-18T14:14:41;3.97;;;2.00;;
56267;SDS011;42175;46.930;9.532;2022-12-18T14:17:12;5.47;;;1.73;;
56267;SDS011;42175;46.930;9.532;2022-12-18T14:19:43;15.13;;;2.03;;
56267;SDS011;42175;46.930;9.532;2022-12-18T14:22:19;3.03;;;1.65;;
56267;SDS011;42175;46.930;9.532;2022-12-18T14:25:10;6.72;;;1.80;;
56267;SDS011;42175;46.930;9.532;2022-12-18T14:27:48;8.00;;;1.90;;
56267;SDS011;42175;46.930;9.532;2022-12-18T14:33:01;4.50;;;1.83;;
56267;SDS011;42175;46.930;9.532;2022-12-18T14:35:35;5.40;;;1.67;;
56267;SDS011;42175;46.930;9.532;2022-12-18T14:43:28;3.95;;;1.50;;
56267;SDS011;42175;46.930;9.532;2022-12-18T14:45:57;5.63;;;1.60;;
56267;SDS011;42175;46.930;9.532;2022-12-18T14:48:36;4.55;;;1.75;;
56267;SDS011;42175;46.930;9.532;2022-12-18T14:56:18;3.30;;;1.60;;
56267;SDS011;42175;46.930;9.532;2022-12-18T14:58:48;6.80;;;1.70;;
56267;SDS011;42175;46.930;9.532;2022-12-18T15:01:36;2.03;;;1.48;;
56267;SDS011;42175;46.930;9.532;2022-12-18T15:04:04;4.90;;;1.67;;
56267;SDS011;42175;46.930;9.532;2022-12-18T15:06:48;3.47;;;1.55;;
56267;SDS011;42175;46.930;9.532;2022-12-18T15:09:26;11.52;;;1.70;;
56267;SDS011;42175;46.930;9.532;2022-12-18T15:11:58;6.05;;;1.80;;
56267;SDS011;42175;46.930;9.532;2022-12-18T15:14:35;6.93;;;1.75;;
56267;SDS011;42175;46.930;9.532;2022-12-18T15:17:06;3.33;;;1.73;;
56267;SDS011;42175;46.930;9.532;2022-12-18T15:19:44;6.82;;;1.90;;
56267;SDS011;42175;46.930;9.532;2022-12-18T15:25:00;4.57;;;1.50;;
56267;SDS011;42175;46.930;9.532;2022-12-18T15:27:33;3.97;;;2.00;;
56267;SDS011;42175;46.930;9.532;2022-12-18T15:32:35;1.98;;;1.60;;
56267;SDS011;42175;46.930;9.532;2022-12-18T15:35:03;5.43;;;2.20;;
56267;SDS011;42175;46.930;9.532;2022-12-18T15:37:38;2.10;;;1.38;;
56267;SDS011;42175;46.930;9.532;2022-12-18T15:40:04;7.93;;;1.77;;
56267;SDS011;42175;46.930;9.532;2022-12-18T15:42:30;5.22;;;1.77;;
56267;SDS011;42175;46.930;9.532;2022-12-18T15:47:40;3.80;;;2.08;;
56267;SDS011;42175;46.930;9.532;2022-12-18T15:50:09;13.95;;;5.57;;
56267;SDS011;42175;46.930;9.532;2022-12-18T15:52:42;13.25;;;7.70;;
56267;SDS011;42175;46.930;9.532;2022-12-18T15:55:12;11.40;;;8.32;;
56267;SDS011;42175;46.930;9.532;2022-12-18T15:57:58;14.48;;;6.70;;
56267;SDS011;42175;46.930;9.532;2022-12-18T16:00:24;11.20;;;6.22;;
56267;SDS011;42175;46.930;9.532;2022-12-18T16:02:50;15.93;;;7.38;;
56267;SDS011;42175;46.930;9.532;2022-12-18T16:05:16;10.43;;;6.13;;
56267;SDS011;42175;46.930;9.532;2022-12-18T16:07:44;13.77;;;7.65;;
56267;SDS011;42175;46.930;9.532;2022-12-18T16:10:10;15.18;;;7.28;;
56267;SDS011;42175;46.930;9.532;2022-12-18T16:12:36;19.25;;;7.57;;
56267;SDS011;42175;46.930;9.532;2022-12-18T16:15:02;11.35;;;6.60;;
56267;SDS011;42175;46.930;9.532;2022-12-18T16:17:30;16.05;;;6.72;;
56267;SDS011;42175;46.930;9.532;2022-12-18T16:19:56;13.05;;;6.57;;
56267;SDS011;42175;46.930;9.532;2022-12-18T16:22:23;12.50;;;6.28;;
56267;SDS011;42175;46.930;9.532;2022-12-18T16:24:51;14.25;;;6.00;;
56267;SDS011;42175;46.930;9.532;2022-12-18T16:27:17;17.30;;;6.35;;
56267;SDS011;42175;46.930;9.532;2022-12-18T16:29:44;13.02;;;6.35;;
56267;SDS011;42175;46.930;9.532;2022-12-18T16:32:17;14.43;;;5.50;;
56267;SDS011;42175;46.930;9.532;2022-12-18T16:34:45;11.85;;;6.40;;
56267;SDS011;42175;46.930;9.532;2022-12-18T16:37:12;8.55;;;5.75;;
56267;SDS011;42175;46.930;9.532;2022-12-18T16:39:39;17.30;;;5.75;;
56267;SDS011;42175;46.930;9.532;2022-12-18T16:42:15;10.82;;;6.30;;
56267;SDS011;42175;46.930;9.532;2022-12-18T16:44:44;14.65;;;5.78;;
56267;SDS011;42175;46.930;9.532;2022-12-18T16:47:10;11.07;;;5.40;;
56267;SDS011;42175;46.930;9.532;2022-12-18T16:49:36;10.10;;;5.78;;
56267;SDS011;42175;46.930;9.532;2022-12-18T16:52:03;16.63;;;5.35;;
56267;SDS011;42175;46.930;9.532;2022-12-18T16:54:29;12.40;;;6.32;;
56267;SDS011;42175;46.930;9.532;2022-12-18T16:56:55;14.48;;;5.40;;
56267;SDS011;42175;46.930;9.532;2022-12-18T16:59:21;9.23;;;5.72;;
56267;SDS011;42175;46.930;9.532;2022-12-18T17:01:47;15.32;;;5.60;;
56267;SDS011;42175;46.930;9.532;2022-12-18T17:04:13;13.63;;;5.68;;
56267;SDS011;42175;46.930;9.532;2022-12-18T17:06:40;8.88;;;5.95;;
56267;SDS011;42175;46.930;9.532;2022-12-18T17:09:09;17.40;;;6.70;;
56267;SDS011;42175;46.930;9.532;2022-12-18T17:11:40;11.32;;;5.53;;
56267;SDS011;42175;46.930;9.532;2022-12-18T17:14:06;10.55;;;5.30;;
56267;SDS011;42175;46.930;9.532;2022-12-18T17:16:34;9.25;;;5.90;;
56267;SDS011;42175;46.930;9.532;2022-12-18T17:19:00;18.20;;;6.25;;
56267;SDS011;42175;46.930;9.532;2022-12-18T17:21:26;16.13;;;5.55;;
56267;SDS011;42175;46.930;9.532;2022-12-18T17:23:52;11.88;;;5.32;;
56267;SDS011;42175;46.930;9.532;2022-12-18T17:26:17;13.23;;;5.55;;
56267;SDS011;42175;46.930;9.532;2022-12-18T17:28:43;11.85;;;5.55;;